createdAt,value
2024-04-21T00:00:36.962Z,23.96
2024-04-21T00:03:07.907Z,23.96
2024-04-21T00:05:35.351Z,23.96
2024-04-21T00:08:05.533Z,23.95
2024-04-21T00:10:32.968Z,23.95
2024-04-21T00:13:05.550Z,23.95
2024-04-21T00:15:33.041Z,23.94
2024-04-21T00:18:03.422Z,23.95
2024-04-21T00:20:31.137Z,23.93
2024-04-21T00:23:01.146Z,23.94
2024-04-21T00:25:28.472Z,23.93
2024-04-21T00:27:58.541Z,23.92
2024-04-21T00:30:28.690Z,23.92
2024-04-21T00:32:58.686Z,23.92
2024-04-21T00:35:26.744Z,23.91
2024-04-21T00:37:57.018Z,23.91
2024-04-21T00:40:24.694Z,23.91
2024-04-21T00:43:02.434Z,23.90
2024-04-21T00:45:37.244Z,23.89
2024-04-21T00:48:09.768Z,23.88
2024-04-21T00:50:37.089Z,23.88
2024-04-21T00:53:08.037Z,23.87
2024-04-21T00:55:35.783Z,23.88
2024-04-21T00:58:06.181Z,23.87
2024-04-21T01:00:36.708Z,23.87
2024-04-21T01:03:07.160Z,23.87
2024-04-21T01:05:34.630Z,23.87
2024-04-21T01:08:04.538Z,23.87
2024-04-21T01:10:32.431Z,23.88
2024-04-21T01:13:02.355Z,23.87
2024-04-21T01:15:29.647Z,23.87
2024-04-21T01:18:02.693Z,23.87
2024-04-21T01:20:30.074Z,23.88
2024-04-21T01:23:02.635Z,23.88
2024-04-21T01:25:30.014Z,23.89
2024-04-21T01:28:00.079Z,23.89
2024-04-21T01:30:27.771Z,23.89
2024-04-21T01:32:57.888Z,23.89
2024-04-21T01:35:25.410Z,23.90
2024-04-21T01:37:55.314Z,23.90
2024-04-21T01:40:25.488Z,23.91
2024-04-21T01:42:55.507Z,23.91
2024-04-21T01:45:24.131Z,23.91
2024-04-21T01:47:54.478Z,23.91
2024-04-21T01:50:21.831Z,23.92
2024-04-21T01:52:51.743Z,23.92
2024-04-21T01:55:19.128Z,23.93
2024-04-21T01:57:55.654Z,23.92
2024-04-21T02:00:23.153Z,23.91
2024-04-21T02:02:53.189Z,23.90
2024-04-21T02:05:20.563Z,23.91
2024-04-21T02:07:51.869Z,23.91
2024-04-21T02:10:19.281Z,23.90
2024-04-21T02:12:49.284Z,23.90
2024-04-21T02:15:19.327Z,23.89
2024-04-21T02:17:49.301Z,23.89
2024-04-21T02:20:16.786Z,23.88
2024-04-21T02:22:46.711Z,23.88
2024-04-21T02:25:14.226Z,23.88
2024-04-21T02:27:44.216Z,23.89
2024-04-21T02:30:11.561Z,23.88
2024-04-21T02:32:44.186Z,23.88
2024-04-21T02:35:11.531Z,23.89
2024-04-21T02:37:41.454Z,23.88
2024-04-21T02:40:09.491Z,23.88
2024-04-21T02:42:39.418Z,23.87
2024-04-21T02:45:07.799Z,23.89
2024-04-21T02:47:37.728Z,23.88
2024-04-21T02:50:08.131Z,23.89
2024-04-21T02:52:38.614Z,23.88
2024-04-21T02:55:06.015Z,23.88
2024-04-21T02:57:35.931Z,23.88
2024-04-21T03:00:03.294Z,23.89
2024-04-21T03:02:33.232Z,23.88
2024-04-21T03:05:01.296Z,23.88
2024-04-21T03:07:34.734Z,23.88
2024-04-21T03:10:02.117Z,23.86
2024-04-21T03:12:32.069Z,23.84
2024-04-21T03:14:59.341Z,23.83
2024-04-21T03:17:29.323Z,23.82
2024-04-21T03:19:56.790Z,23.82
2024-04-21T03:22:26.792Z,23.83
2024-04-21T03:24:56.944Z,23.82
2024-04-21T03:27:27.012Z,23.81
2024-04-21T03:29:54.290Z,23.81
2024-04-21T03:32:24.230Z,23.82
2024-04-21T03:34:53.286Z,23.81
2024-04-21T03:37:23.262Z,23.80
2024-04-21T03:39:53.333Z,23.79
2024-04-21T03:42:23.315Z,23.79
2024-04-21T03:44:53.243Z,23.79
2024-04-21T03:47:20.562Z,23.77
2024-04-21T03:49:50.484Z,23.78
2024-04-21T03:52:17.806Z,23.79
2024-04-21T03:54:47.822Z,23.79
2024-04-21T03:57:15.154Z,23.80
2024-04-21T03:59:47.743Z,23.79
2024-04-21T04:02:15.059Z,23.80
2024-04-21T04:04:45.188Z,23.79
2024-04-21T04:07:12.564Z,23.79
2024-04-21T04:09:42.561Z,23.81
2024-04-21T04:12:09.869Z,23.79
2024-04-21T04:14:39.905Z,23.79
2024-04-21T04:17:10.150Z,23.80
2024-04-21T04:19:40.824Z,23.79
2024-04-21T04:22:08.695Z,23.80
2024-04-21T04:24:38.624Z,23.79
2024-04-21T04:27:06.160Z,23.78
2024-04-21T04:29:36.095Z,23.78
2024-04-21T04:32:03.444Z,23.77
2024-04-21T04:34:36.503Z,23.78
2024-04-21T04:37:03.876Z,23.77
2024-04-21T04:39:34.464Z,23.78
2024-04-21T04:42:01.772Z,23.76
2024-04-21T04:44:31.900Z,23.77
2024-04-21T04:46:59.318Z,23.76
2024-04-21T04:49:29.628Z,23.77
2024-04-21T04:51:59.812Z,23.75
2024-04-21T04:54:29.738Z,23.74
2024-04-21T04:56:57.017Z,23.76
2024-04-21T04:59:27.183Z,23.75
2024-04-21T05:01:54.704Z,23.79
2024-04-21T05:04:25.551Z,23.83
2024-04-21T05:06:52.992Z,23.85
2024-04-21T05:09:25.862Z,23.84
2024-04-21T05:11:53.510Z,23.85
2024-04-21T05:14:23.873Z,23.85
2024-04-21T05:16:51.199Z,23.89
2024-04-21T05:19:21.523Z,23.91
2024-04-21T05:21:49.294Z,23.93
2024-04-21T05:24:20.049Z,23.91
2024-04-21T05:26:50.193Z,23.93
2024-04-21T05:29:20.126Z,23.94
2024-04-21T05:31:47.419Z,23.95
2024-04-21T05:34:18.095Z,23.97
2024-04-21T05:36:45.555Z,23.97
2024-04-21T05:39:15.499Z,23.97
2024-04-21T05:41:42.834Z,23.98
2024-04-21T05:44:15.374Z,23.95
2024-04-21T05:46:42.694Z,23.90
2024-04-21T05:49:12.662Z,23.88
2024-04-21T05:51:40.141Z,23.87
2024-04-21T05:54:10.046Z,23.88
2024-04-21T05:56:37.377Z,23.88
2024-04-21T05:59:07.279Z,23.86
2024-04-21T06:01:37.362Z,23.87
2024-04-21T06:04:07.712Z,23.87
2024-04-21T06:06:35.056Z,23.87
2024-04-21T06:09:04.958Z,23.87
2024-04-21T06:11:32.261Z,23.86
2024-04-21T06:14:08.933Z,23.87
2024-04-21T06:16:38.843Z,23.88
2024-04-21T06:19:08.867Z,23.88
2024-04-21T06:21:36.217Z,23.89
2024-04-21T06:24:06.195Z,23.90
2024-04-21T06:26:33.455Z,23.89
2024-04-21T06:29:03.362Z,23.87
2024-04-21T06:31:30.732Z,23.88
2024-04-21T06:34:03.347Z,23.91
2024-04-21T06:36:30.688Z,23.90
2024-04-21T06:39:00.588Z,23.91
2024-04-21T06:41:27.838Z,23.94
2024-04-21T06:43:57.858Z,23.94
2024-04-21T06:46:25.266Z,23.95
2024-04-21T06:48:55.479Z,23.95
2024-04-21T06:51:25.585Z,23.96
2024-04-21T06:53:55.670Z,23.96
2024-04-21T06:56:22.960Z,23.97
2024-04-21T06:58:52.872Z,23.97
2024-04-21T07:01:20.334Z,23.97
2024-04-21T07:03:50.577Z,23.97
2024-04-21T07:06:17.957Z,23.97
2024-04-21T07:08:50.617Z,23.96
2024-04-21T07:11:17.957Z,23.97
2024-04-21T07:13:51.453Z,23.99
2024-04-21T07:16:21.143Z,24.00
2024-04-21T07:18:54.736Z,24.00
2024-04-21T07:21:22.362Z,23.97
2024-04-21T07:23:55.115Z,23.98
2024-04-21T07:26:22.374Z,23.95
2024-04-21T07:28:52.418Z,23.98
2024-04-21T07:31:19.880Z,23.98
2024-04-21T07:33:49.983Z,23.96
2024-04-21T07:36:17.700Z,23.94
2024-04-21T07:38:47.737Z,23.95
2024-04-21T07:41:18.010Z,23.95
2024-04-21T07:43:48.152Z,23.95
2024-04-21T07:46:15.505Z,23.97
2024-04-21T07:48:45.747Z,23.98
2024-04-21T07:51:15.567Z,23.97
2024-04-21T07:53:47.036Z,23.97
2024-04-21T07:56:17.183Z,23.97
2024-04-21T07:58:47.090Z,23.98
2024-04-21T08:01:14.496Z,23.99
2024-04-21T08:03:44.648Z,24.00
2024-04-21T08:06:12.422Z,23.97
2024-04-21T08:08:42.430Z,23.57
2024-04-21T08:11:09.932Z,23.18
2024-04-21T08:13:42.700Z,23.17
2024-04-21T08:16:10.230Z,23.29
2024-04-21T08:18:41.022Z,23.40
2024-04-21T08:21:08.780Z,23.47
2024-04-21T08:23:39.000Z,23.54
2024-04-21T08:26:06.423Z,23.59
2024-04-21T08:28:36.528Z,23.63
2024-04-21T08:31:07.214Z,23.65
2024-04-21T08:33:37.284Z,23.67
2024-04-21T08:36:05.193Z,23.69
2024-04-21T08:38:35.198Z,23.70
2024-04-21T08:41:08.688Z,23.71
2024-04-21T08:43:38.628Z,23.75
2024-04-21T08:46:09.043Z,23.75
2024-04-21T08:48:39.506Z,23.72
2024-04-21T08:51:06.950Z,23.74
2024-04-21T08:53:37.195Z,23.75
2024-04-21T08:56:06.834Z,23.78
2024-04-21T08:58:37.225Z,23.77
2024-04-21T09:01:07.946Z,23.79
2024-04-21T09:03:38.062Z,23.78
2024-04-21T09:06:05.718Z,23.80
2024-04-21T09:08:36.084Z,23.81
2024-04-21T09:11:04.254Z,23.82
2024-04-21T09:13:34.425Z,23.84
2024-04-21T09:16:01.910Z,23.86
2024-04-21T09:18:34.603Z,23.88
2024-04-21T09:21:01.935Z,23.91
2024-04-21T09:23:32.314Z,23.88
2024-04-21T09:25:59.716Z,23.89
2024-04-21T09:28:30.148Z,23.82
2024-04-21T09:30:57.626Z,23.81
2024-04-21T09:33:28.103Z,23.83
2024-04-21T09:36:00.524Z,23.85
2024-04-21T09:38:30.938Z,23.86
2024-04-21T09:40:58.498Z,23.87
2024-04-21T09:43:28.610Z,23.88
2024-04-21T09:45:56.521Z,23.88
2024-04-21T09:48:26.436Z,23.90
2024-04-21T09:50:53.747Z,23.88
2024-04-21T09:53:26.265Z,23.89
2024-04-21T09:55:54.983Z,23.89
2024-04-21T09:58:25.757Z,23.88
2024-04-21T10:00:53.984Z,23.88
2024-04-21T10:03:23.975Z,23.89
2024-04-21T10:05:52.467Z,23.90
2024-04-21T10:08:23.427Z,23.90
2024-04-21T10:10:54.922Z,23.91
2024-04-21T10:13:24.972Z,23.91
2024-04-21T10:15:52.547Z,23.92
2024-04-21T10:18:25.478Z,23.92
2024-04-21T10:20:53.361Z,23.94
2024-04-21T10:23:23.249Z,23.95
2024-04-21T10:25:55.121Z,23.96
2024-04-21T10:28:29.484Z,23.97
2024-04-21T10:31:04.813Z,23.96
2024-04-21T10:33:34.833Z,23.97
2024-04-21T10:36:02.143Z,23.98
2024-04-21T10:38:32.319Z,23.99
2024-04-21T10:41:02.438Z,23.99
2024-04-21T10:43:32.521Z,24.00
2024-04-21T10:46:00.273Z,24.01
2024-04-21T10:48:30.455Z,24.01
2024-04-21T10:50:58.005Z,24.01
2024-04-21T10:53:28.204Z,24.01
2024-04-21T10:55:55.837Z,24.01
2024-04-21T10:58:28.652Z,24.00
2024-04-21T11:00:56.051Z,24.01
2024-04-21T11:03:26.157Z,23.99
2024-04-21T11:05:56.590Z,23.99
2024-04-21T11:08:26.664Z,23.99
2024-04-21T11:10:54.303Z,23.99
2024-04-21T11:13:24.355Z,23.99
2024-04-21T11:15:54.582Z,23.99
2024-04-21T11:18:24.600Z,23.98
2024-04-21T11:20:51.943Z,23.99
2024-04-21T11:23:21.866Z,23.99
2024-04-21T11:25:51.841Z,23.99
2024-04-21T11:28:24.154Z,24.00
2024-04-21T11:31:05.006Z,23.99
2024-04-21T11:33:35.595Z,23.99
2024-04-21T11:36:03.266Z,24.01
2024-04-21T11:38:33.318Z,24.02
2024-04-21T11:41:00.588Z,24.01
2024-04-21T11:43:31.375Z,24.01
2024-04-21T11:46:04.484Z,24.02
2024-04-21T11:48:35.187Z,24.03
2024-04-21T11:51:02.865Z,24.04
2024-04-21T11:53:32.769Z,24.04
2024-04-21T11:56:00.023Z,24.04
2024-04-21T11:58:33.399Z,24.04
2024-04-21T12:01:03.668Z,24.05
2024-04-21T12:03:33.729Z,24.04
2024-04-21T12:06:01.069Z,24.06
2024-04-21T12:08:31.053Z,24.06
2024-04-21T12:10:58.644Z,24.06
2024-04-21T12:13:28.793Z,24.07
2024-04-21T12:15:56.131Z,24.08
2024-04-21T12:18:28.753Z,24.09
2024-04-21T12:20:56.073Z,24.09
2024-04-21T12:23:26.026Z,24.11
2024-04-21T12:25:53.642Z,24.12
2024-04-21T12:28:23.742Z,24.12
2024-04-21T12:30:51.049Z,24.12
2024-04-21T12:33:21.006Z,24.12
2024-04-21T12:35:50.960Z,24.12
2024-04-21T12:38:20.880Z,24.11
2024-04-21T12:40:48.150Z,24.11
2024-04-21T12:43:18.163Z,24.10
2024-04-21T12:45:46.562Z,24.11
2024-04-21T12:48:17.653Z,24.14
2024-04-21T12:50:47.388Z,24.16
2024-04-21T12:53:20.066Z,24.16
2024-04-21T12:55:47.383Z,24.19
2024-04-21T12:58:17.388Z,24.20
2024-04-21T13:00:44.747Z,24.21
2024-04-21T13:03:17.608Z,24.21
2024-04-21T13:05:45.282Z,24.21
2024-04-21T13:08:15.198Z,24.21
2024-04-21T13:10:45.191Z,24.21
2024-04-21T13:13:15.224Z,24.20
2024-04-21T13:15:42.591Z,24.21
2024-04-21T13:18:12.637Z,24.21
2024-04-21T13:20:39.964Z,24.19
2024-04-21T13:23:10.126Z,24.20
2024-04-21T13:25:37.453Z,24.22
2024-04-21T13:28:10.165Z,24.22
2024-04-21T13:30:37.675Z,24.23
2024-04-21T13:33:08.356Z,24.24
2024-04-21T13:35:35.716Z,24.24
2024-04-21T13:38:05.982Z,24.24
2024-04-21T13:40:33.663Z,24.22
2024-04-21T13:43:04.022Z,24.21
2024-04-21T13:45:34.034Z,24.21
2024-04-21T13:48:04.464Z,24.20
2024-04-21T13:50:31.883Z,24.20
2024-04-21T13:53:02.293Z,24.18
2024-04-21T13:55:29.594Z,24.18
2024-04-21T13:57:59.567Z,24.19
2024-04-21T14:00:26.915Z,24.17
2024-04-21T14:02:59.614Z,24.17
2024-04-21T14:05:26.934Z,24.17
2024-04-21T14:07:56.822Z,24.15
2024-04-21T14:10:24.390Z,24.15
2024-04-21T14:12:54.354Z,24.14
2024-04-21T14:15:22.042Z,24.17
2024-04-21T14:17:52.114Z,24.20
2024-04-21T14:20:22.158Z,24.22
2024-04-21T14:22:52.609Z,24.24
2024-04-21T14:25:20.035Z,24.25
2024-04-21T14:27:51.105Z,24.27
2024-04-21T14:30:18.424Z,24.29
2024-04-21T14:32:48.523Z,24.30
2024-04-21T14:35:16.184Z,24.33
2024-04-21T14:37:49.061Z,24.34
2024-04-21T14:40:16.757Z,24.35
2024-04-21T14:42:46.678Z,24.37
2024-04-21T14:45:13.989Z,24.39
2024-04-21T14:47:45.965Z,24.39
2024-04-21T14:50:13.454Z,24.39
2024-04-21T14:52:48.478Z,24.38
2024-04-21T14:55:16.131Z,24.38
2024-04-21T14:57:48.409Z,24.38
2024-04-21T15:00:16.269Z,24.37
2024-04-21T15:02:46.258Z,24.37
2024-04-21T15:05:14.580Z,24.36
2024-04-21T15:07:44.505Z,24.36
2024-04-21T15:10:14.571Z,24.36
2024-04-21T15:12:44.549Z,24.36
2024-04-21T15:15:11.874Z,24.34
2024-04-21T15:17:41.985Z,24.34
2024-04-21T15:20:10.377Z,24.33
2024-04-21T15:22:40.808Z,24.33
2024-04-21T15:25:08.568Z,24.32
2024-04-21T15:27:45.302Z,24.32
2024-04-21T15:30:12.801Z,24.31
2024-04-21T15:32:43.875Z,24.31
2024-04-21T15:35:11.261Z,24.30
2024-04-21T15:37:43.235Z,24.30
2024-04-21T15:40:11.936Z,24.32
2024-04-21T15:42:44.706Z,24.32
2024-04-21T15:45:12.181Z,24.32
2024-04-21T15:47:45.600Z,24.32
2024-04-21T15:50:14.861Z,24.33
2024-04-21T15:52:44.958Z,24.32
2024-04-21T15:55:15.584Z,24.32
2024-04-21T15:57:48.305Z,24.32
2024-04-21T16:00:17.835Z,24.32
2024-04-21T16:02:47.788Z,24.32
2024-04-21T16:05:15.123Z,24.31
2024-04-21T16:07:45.022Z,24.30
2024-04-21T16:10:12.320Z,24.30
2024-04-21T16:12:44.475Z,24.30
2024-04-21T16:15:17.239Z,24.30
2024-04-21T16:17:49.724Z,24.29
2024-04-21T16:20:17.460Z,24.29
2024-04-21T16:22:47.609Z,24.29
2024-04-21T16:25:15.165Z,24.30
2024-04-21T16:27:46.822Z,24.30
2024-04-21T16:30:17.666Z,24.30
2024-04-21T16:32:47.816Z,24.29
2024-04-21T16:35:16.054Z,24.30
2024-04-21T16:37:46.562Z,24.30
2024-04-21T16:40:14.545Z,24.31
2024-04-21T16:42:45.098Z,24.31
2024-04-21T16:45:13.536Z,24.31
2024-04-21T16:47:50.882Z,24.32
2024-04-21T16:50:18.887Z,24.31
2024-04-21T16:52:49.488Z,24.32
2024-04-21T16:55:17.976Z,24.32
2024-04-21T16:57:56.289Z,24.33
2024-04-21T17:00:24.668Z,24.31
2024-04-21T17:02:57.981Z,24.31
2024-04-21T17:05:25.978Z,24.31
2024-04-21T17:08:00.226Z,24.31
2024-04-21T17:10:28.604Z,24.32
2024-04-21T17:12:59.605Z,24.31
2024-04-21T17:15:26.938Z,24.31
2024-04-21T17:18:00.134Z,24.31
2024-04-21T17:20:27.566Z,24.31
2024-04-21T17:22:57.845Z,24.30
2024-04-21T17:25:25.150Z,24.30
2024-04-21T17:27:55.100Z,24.31
2024-04-21T17:30:23.233Z,24.30
2024-04-21T17:32:53.276Z,24.29
2024-04-21T17:35:23.474Z,24.29
2024-04-21T17:37:53.421Z,24.29
2024-04-21T17:40:20.803Z,24.30
2024-04-21T17:42:55.100Z,24.30
2024-04-21T17:45:25.306Z,24.29
2024-04-21T17:47:55.238Z,24.29
2024-04-21T17:50:25.394Z,24.30
2024-04-21T17:52:55.294Z,24.31
2024-04-21T17:55:22.636Z,24.30
2024-04-21T17:57:52.531Z,24.30
2024-04-21T18:00:20.705Z,24.29
2024-04-21T18:02:50.884Z,24.30
2024-04-21T18:05:18.348Z,24.31
2024-04-21T18:07:55.735Z,24.29
2024-04-21T18:10:23.313Z,24.29
2024-04-21T18:12:53.276Z,24.29
2024-04-21T18:15:20.611Z,24.29
2024-04-21T18:17:51.428Z,24.30
2024-04-21T18:20:18.789Z,24.29
2024-04-21T18:22:51.434Z,24.29
2024-04-21T18:25:19.987Z,24.29
2024-04-21T18:27:49.912Z,24.29
2024-04-21T18:30:19.906Z,24.29
2024-04-21T18:32:47.230Z,24.28
2024-04-21T18:35:17.393Z,24.29
2024-04-21T18:37:44.662Z,24.29
2024-04-21T18:40:17.467Z,24.28
2024-04-21T18:42:47.135Z,24.29
2024-04-21T18:45:17.138Z,24.28
2024-04-21T18:47:44.450Z,24.28
2024-04-21T18:50:14.837Z,24.27
2024-04-21T18:52:42.362Z,24.27
2024-04-21T18:55:12.309Z,24.27
2024-04-21T18:57:42.472Z,24.27
2024-04-21T19:00:13.329Z,24.26
2024-04-21T19:02:40.832Z,24.27
2024-04-21T19:05:10.834Z,24.27
2024-04-21T19:07:38.177Z,24.26
2024-04-21T19:10:09.383Z,24.27
2024-04-21T19:12:37.203Z,24.25
2024-04-21T19:15:11.393Z,24.25
2024-04-21T19:17:39.212Z,24.26
2024-04-21T19:20:10.764Z,24.26
2024-04-21T19:22:38.636Z,24.24
2024-04-21T19:25:09.856Z,24.24
2024-04-21T19:27:37.273Z,24.24
2024-04-21T19:30:11.328Z,24.24
2024-04-21T19:32:38.985Z,24.25
2024-04-21T19:35:10.481Z,24.24
2024-04-21T19:37:37.764Z,24.25
2024-04-21T19:40:08.748Z,24.23
2024-04-21T19:42:36.431Z,24.23
2024-04-21T19:45:09.459Z,24.22
2024-04-21T19:47:36.795Z,24.23
2024-04-21T19:50:07.276Z,24.23
2024-04-21T19:52:39.271Z,24.26
2024-04-21T19:55:07.555Z,24.26
2024-04-21T19:57:39.707Z,24.26
2024-04-21T20:00:12.531Z,24.27
2024-04-21T20:02:42.740Z,24.27
2024-04-21T20:05:10.130Z,24.26
2024-04-21T20:07:40.237Z,24.27
2024-04-21T20:10:10.999Z,24.29
2024-04-21T20:12:38.380Z,24.29
2024-04-21T20:15:25.241Z,24.30
2024-04-21T20:18:14.493Z,24.32
2024-04-21T20:20:44.761Z,24.33
2024-04-21T20:23:14.790Z,24.33
2024-04-21T20:25:44.751Z,24.33
2024-04-21T20:28:12.673Z,24.34
2024-04-21T20:30:42.575Z,24.36
2024-04-21T20:33:12.567Z,24.34
2024-04-21T20:35:42.519Z,24.35
2024-04-21T20:38:09.859Z,24.35
2024-04-21T20:40:39.848Z,24.35
2024-04-21T20:43:07.676Z,24.36
2024-04-21T20:45:37.573Z,24.36
2024-04-21T20:48:05.649Z,24.37
2024-04-21T20:50:38.315Z,24.36
2024-04-21T20:53:06.126Z,24.36
2024-04-21T20:55:36.113Z,24.37
2024-04-21T20:58:03.609Z,24.37
2024-04-21T21:00:37.700Z,24.37
2024-04-21T21:03:05.593Z,24.37
2024-04-21T21:05:38.179Z,24.37
2024-04-21T21:08:07.001Z,24.37
2024-04-21T21:10:36.943Z,24.38
2024-04-21T21:13:04.977Z,24.39
2024-04-21T21:15:36.579Z,24.38
2024-04-21T21:18:04.190Z,24.38
2024-04-21T21:20:34.138Z,24.39
2024-04-21T21:23:04.273Z,24.40
2024-04-21T21:25:34.787Z,24.40
2024-04-21T21:28:02.167Z,24.40
2024-04-21T21:30:32.115Z,24.41
2024-04-21T21:32:59.436Z,24.40
2024-04-21T21:35:29.414Z,24.41
2024-04-21T21:37:56.715Z,24.40
2024-04-21T21:40:29.320Z,24.40
2024-04-21T21:42:56.923Z,24.40
2024-04-21T21:45:26.895Z,24.41
2024-04-21T21:47:54.286Z,24.41
2024-04-21T21:50:24.645Z,24.40
2024-04-21T21:52:51.933Z,24.42
2024-04-21T21:55:21.873Z,24.41
2024-04-21T21:57:51.936Z,24.41
2024-04-21T22:00:24.133Z,24.42
2024-04-21T22:02:53.649Z,24.43
2024-04-21T22:05:23.560Z,24.42
2024-04-21T22:07:51.048Z,24.43
2024-04-21T22:10:21.979Z,24.44
2024-04-21T22:12:52.603Z,24.44
2024-04-21T22:15:23.115Z,24.44
2024-04-21T22:17:50.542Z,24.44
2024-04-21T22:20:21.926Z,24.44
2024-04-21T22:22:52.557Z,24.42
2024-04-21T22:25:22.968Z,24.43
2024-04-21T22:27:53.527Z,24.42
2024-04-21T22:30:23.420Z,24.39
2024-04-21T22:32:51.023Z,24.40
2024-04-21T22:35:21.146Z,24.39
2024-04-21T22:37:48.686Z,24.37
2024-04-21T22:40:18.846Z,24.36
2024-04-21T22:42:47.911Z,24.34
2024-04-21T22:45:20.608Z,24.33
2024-04-21T22:47:47.999Z,24.30
2024-04-21T22:50:18.072Z,24.28
2024-04-21T22:52:45.422Z,24.27
2024-04-21T22:55:15.523Z,24.26
2024-04-21T22:57:42.921Z,24.24
2024-04-21T23:00:14.030Z,24.21
2024-04-21T23:02:44.003Z,24.19
2024-04-21T23:05:14.266Z,24.17
2024-04-21T23:07:41.603Z,24.14
2024-04-21T23:10:11.829Z,24.13
2024-04-21T23:12:39.481Z,24.12
2024-04-21T23:15:10.376Z,24.10
2024-04-21T23:17:37.747Z,24.08
2024-04-21T23:20:11.226Z,24.06
2024-04-21T23:22:38.742Z,24.06
2024-04-21T23:25:09.466Z,24.04
2024-04-21T23:27:36.930Z,24.03
2024-04-21T23:30:07.667Z,24.02
2024-04-21T23:32:35.087Z,24.01
2024-04-21T23:35:05.052Z,24.00
2024-04-21T23:37:35.487Z,23.99
2024-04-21T23:40:06.202Z,23.98
2024-04-21T23:42:33.613Z,23.98
2024-04-21T23:45:04.214Z,23.96
2024-04-21T23:47:31.612Z,23.95
2024-04-21T23:50:01.545Z,23.95
2024-04-21T23:52:28.891Z,23.94
2024-04-21T23:55:01.447Z,23.93
2024-04-21T23:57:28.770Z,23.92
2024-04-21T23:59:58.687Z,23.91
